sensor_id;sensor_type;location;lat;lon;timestamp;pressure;altitude;pressure_sealevel;temperature;humidity
68859;BME280;55864;49.238;8.092;2023-02-20T00:01:31;100614.31;;;7.83;82.05
68859;BME280;55864;49.238;8.092;2023-02-20T00:03:32;100616.38;;;7.78;82.25
68859;BME280;55864;49.238;8.092;2023-02-20T00:05:33;100614.88;;;7.74;83.09
68859;BME280;55864;49.238;8.092;2023-02-20T00:07:33;100615.81;;;7.73;82.74
68859;BME280;55864;49.238;8.092;2023-02-20T00:09:34;100616.03;;;7.70;81.87
68859;BME280;55864;49.238;8.092;2023-02-20T00:11:36;100611.16;;;7.64;82.12
68859;BME280;55864;49.238;8.092;2023-02-20T00:13:36;100612.28;;;7.60;82.29
68859;BME280;55864;49.238;8.092;2023-02-20T00:15:37;100618.53;;;7.57;82.69
68859;BME280;55864;49.238;8.092;2023-02-20T00:17:37;100626.59;;;7.54;82.95
68859;BME280;55864;49.238;8.092;2023-02-20T00:19:38;100624.34;;;7.48;82.83
68859;BME280;55864;49.238;8.092;2023-02-20T00:21:44;100640.13;;;7.47;82.98
68859;BME280;55864;49.238;8.092;2023-02-20T00:23:44;100631.44;;;7.46;82.59
68859;BME280;55864;49.238;8.092;2023-02-20T00:25:45;100622.00;;;7.44;83.36
68859;BME280;55864;49.238;8.092;2023-02-20T00:27:47;100621.19;;;7.43;83.74
68859;BME280;55864;49.238;8.092;2023-02-20T00:29:47;100615.94;;;7.43;83.99
68859;BME280;55864;49.238;8.092;2023-02-20T00:31:50;100618.63;;;7.42;83.46
68859;BME280;55864;49.238;8.092;2023-02-20T00:33:50;100618.84;;;7.39;83.09
68859;BME280;55864;49.238;8.092;2023-02-20T00:35:51;100610.25;;;7.37;83.45
68859;BME280;55864;49.238;8.092;2023-02-20T00:37:53;100614.63;;;7.36;83.39
68859;BME280;55864;49.238;8.092;2023-02-20T00:39:54;100610.44;;;7.34;83.21
68859;BME280;55864;49.238;8.092;2023-02-20T00:41:55;100610.72;;;7.29;82.67
68859;BME280;55864;49.238;8.092;2023-02-20T00:43:57;100611.72;;;7.27;83.07
68859;BME280;55864;49.238;8.092;2023-02-20T00:45:57;100614.53;;;7.24;83.51
68859;BME280;55864;49.238;8.092;2023-02-20T00:47:58;100608.66;;;7.20;83.77
68859;BME280;55864;49.238;8.092;2023-02-20T00:49:58;100612.28;;;7.18;84.41
68859;BME280;55864;49.238;8.092;2023-02-20T00:51:59;100604.66;;;7.15;84.49
68859;BME280;55864;49.238;8.092;2023-02-20T00:54:00;100611.09;;;7.09;84.22
68859;BME280;55864;49.238;8.092;2023-02-20T00:56:00;100606.13;;;7.05;84.09
68859;BME280;55864;49.238;8.092;2023-02-20T00:58:01;100610.78;;;7.00;83.77
68859;BME280;55864;49.238;8.092;2023-02-20T01:00:03;100597.34;;;6.92;83.31
68859;BME280;55864;49.238;8.092;2023-02-20T01:02:05;100598.66;;;6.85;83.39
68859;BME280;55864;49.238;8.092;2023-02-20T01:04:05;100588.75;;;6.76;83.84
68859;BME280;55864;49.238;8.092;2023-02-20T01:06:06;100593.38;;;6.71;84.19
68859;BME280;55864;49.238;8.092;2023-02-20T01:08:07;100599.72;;;6.66;84.29
68859;BME280;55864;49.238;8.092;2023-02-20T01:10:07;100597.44;;;6.60;85.12
68859;BME280;55864;49.238;8.092;2023-02-20T01:12:09;100600.25;;;6.57;85.43
68859;BME280;55864;49.238;8.092;2023-02-20T01:14:10;100597.66;;;6.57;85.70
68859;BME280;55864;49.238;8.092;2023-02-20T01:16:13;100599.41;;;6.57;86.29
68859;BME280;55864;49.238;8.092;2023-02-20T01:18:13;100599.50;;;6.55;86.73
68859;BME280;55864;49.238;8.092;2023-02-20T01:20:14;100596.13;;;6.53;87.02
68859;BME280;55864;49.238;8.092;2023-02-20T01:22:15;100594.47;;;6.52;87.69
68859;BME280;55864;49.238;8.092;2023-02-20T01:24:16;100596.03;;;6.55;87.65
68859;BME280;55864;49.238;8.092;2023-02-20T01:26:17;100600.25;;;6.57;87.30
68859;BME280;55864;49.238;8.092;2023-02-20T01:28:18;100601.00;;;6.59;87.39
68859;BME280;55864;49.238;8.092;2023-02-20T01:30:18;100593.19;;;6.59;87.64
68859;BME280;55864;49.238;8.092;2023-02-20T01:32:20;100593.06;;;6.61;87.38
68859;BME280;55864;49.238;8.092;2023-02-20T01:34:21;100592.22;;;6.60;87.13
68859;BME280;55864;49.238;8.092;2023-02-20T01:36:22;100594.78;;;6.62;87.04
68859;BME280;55864;49.238;8.092;2023-02-20T01:38:22;100590.47;;;6.61;87.38
68859;BME280;55864;49.238;8.092;2023-02-20T01:40:23;100594.84;;;6.60;87.39
68859;BME280;55864;49.238;8.092;2023-02-20T01:42:28;100593.94;;;6.61;86.97
68859;BME280;55864;49.238;8.092;2023-02-20T01:44:31;100587.84;;;6.61;87.05
68859;BME280;55864;49.238;8.092;2023-02-20T01:46:50;100584.41;;;6.60;86.79
68859;BME280;55864;49.238;8.092;2023-02-20T01:48:54;100579.19;;;6.60;87.04
68859;BME280;55864;49.238;8.092;2023-02-20T01:50:58;100577.50;;;6.59;87.08
68859;BME280;55864;49.238;8.092;2023-02-20T01:53:03;100580.88;;;6.61;87.36
68859;BME280;55864;49.238;8.092;2023-02-20T01:55:09;100574.91;;;6.59;86.71
68859;BME280;55864;49.238;8.092;2023-02-20T01:57:15;100572.38;;;6.58;87.14
68859;BME280;55864;49.238;8.092;2023-02-20T01:59:17;100573.25;;;6.58;87.03
68859;BME280;55864;49.238;8.092;2023-02-20T02:01:19;100571.53;;;6.57;86.75
68859;BME280;55864;49.238;8.092;2023-02-20T02:03:22;100574.16;;;6.57;86.98
68859;BME280;55864;49.238;8.092;2023-02-20T02:05:27;100555.88;;;6.57;86.44
68859;BME280;55864;49.238;8.092;2023-02-20T02:07:29;100563.81;;;6.56;86.54
68859;BME280;55864;49.238;8.092;2023-02-20T02:09:37;100563.91;;;6.54;86.65
68859;BME280;55864;49.238;8.092;2023-02-20T02:11:39;100564.81;;;6.53;86.84
68859;BME280;55864;49.238;8.092;2023-02-20T02:13:41;100569.88;;;6.56;86.57
68859;BME280;55864;49.238;8.092;2023-02-20T02:15:42;100566.31;;;6.57;86.13
68859;BME280;55864;49.238;8.092;2023-02-20T02:17:57;100573.25;;;6.58;86.14
68859;BME280;55864;49.238;8.092;2023-02-20T02:23:16;100560.25;;;6.57;86.10
68859;BME280;55864;49.238;8.092;2023-02-20T02:25:28;100554.13;;;6.58;86.69
68859;BME280;55864;49.238;8.092;2023-02-20T02:28:09;100555.69;;;6.60;86.53
68859;BME280;55864;49.238;8.092;2023-02-20T02:33:19;100547.91;;;6.75;87.10
68859;BME280;55864;49.238;8.092;2023-02-20T02:38:13;100549.03;;;6.85;86.88
68859;BME280;55864;49.238;8.092;2023-02-20T02:40:24;100540.91;;;6.89;86.59
68859;BME280;55864;49.238;8.092;2023-02-20T02:42:34;100552.00;;;6.93;86.35
68859;BME280;55864;49.238;8.092;2023-02-20T02:44:43;100546.50;;;6.97;86.49
68859;BME280;55864;49.238;8.092;2023-02-20T02:46:49;100546.41;;;6.99;86.63
68859;BME280;55864;49.238;8.092;2023-02-20T02:48:58;100543.78;;;6.99;85.76
68859;BME280;55864;49.238;8.092;2023-02-20T02:51:09;100535.97;;;6.99;85.59
68859;BME280;55864;49.238;8.092;2023-02-20T02:53:13;100531.31;;;7.04;85.27
68859;BME280;55864;49.238;8.092;2023-02-20T02:55:17;100526.84;;;7.06;85.27
68859;BME280;55864;49.238;8.092;2023-02-20T02:57:22;100527.59;;;7.08;85.20
68859;BME280;55864;49.238;8.092;2023-02-20T02:59:24;100518.72;;;7.10;84.90
68859;BME280;55864;49.238;8.092;2023-02-20T03:01:28;100517.69;;;7.13;84.86
68859;BME280;55864;49.238;8.092;2023-02-20T03:03:32;100512.63;;;7.10;84.69
68859;BME280;55864;49.238;8.092;2023-02-20T03:05:39;100516.28;;;7.07;84.92
68859;BME280;55864;49.238;8.092;2023-02-20T03:07:44;100519.91;;;7.05;84.89
68859;BME280;55864;49.238;8.092;2023-02-20T03:09:50;100523.66;;;7.01;85.15
68859;BME280;55864;49.238;8.092;2023-02-20T03:11:53;100521.63;;;7.06;84.82
68859;BME280;55864;49.238;8.092;2023-02-20T03:14:01;100521.13;;;6.99;85.22
68859;BME280;55864;49.238;8.092;2023-02-20T03:16:05;100522.09;;;6.98;85.34
68859;BME280;55864;49.238;8.092;2023-02-20T03:18:17;100520.84;;;6.90;85.30
68859;BME280;55864;49.238;8.092;2023-02-20T03:20:22;100520.09;;;6.88;85.36
68859;BME280;55864;49.238;8.092;2023-02-20T03:22:24;100521.06;;;6.87;85.90
68859;BME280;55864;49.238;8.092;2023-02-20T03:24:29;100519.56;;;6.83;86.02
68859;BME280;55864;49.238;8.092;2023-02-20T03:26:34;100516.00;;;6.84;85.77
68859;BME280;55864;49.238;8.092;2023-02-20T03:28:40;100503.31;;;6.78;85.82
68859;BME280;55864;49.238;8.092;2023-02-20T03:30:47;100507.81;;;6.76;86.35
68859;BME280;55864;49.238;8.092;2023-02-20T03:32:54;100506.03;;;6.76;86.52
68859;BME280;55864;49.238;8.092;2023-02-20T03:34:58;100498.19;;;6.76;86.28
68859;BME280;55864;49.238;8.092;2023-02-20T03:37:02;100500.16;;;6.73;86.20
68859;BME280;55864;49.238;8.092;2023-02-20T03:39:07;100502.75;;;6.73;86.80
68859;BME280;55864;49.238;8.092;2023-02-20T03:41:09;100503.88;;;6.68;86.71
68859;BME280;55864;49.238;8.092;2023-02-20T03:43:15;100508.81;;;6.73;86.46
68859;BME280;55864;49.238;8.092;2023-02-20T03:45:19;100512.09;;;6.77;86.38
68859;BME280;55864;49.238;8.092;2023-02-20T03:47:23;100514.91;;;6.74;86.28
68859;BME280;55864;49.238;8.092;2023-02-20T03:49:30;100525.41;;;6.72;86.08
68859;BME280;55864;49.238;8.092;2023-02-20T03:51:32;100526.34;;;6.71;86.59
68859;BME280;55864;49.238;8.092;2023-02-20T03:53:39;100516.66;;;6.73;86.49
68859;BME280;55864;49.238;8.092;2023-02-20T03:55:40;100515.16;;;6.69;86.66
68859;BME280;55864;49.238;8.092;2023-02-20T03:57:49;100516.94;;;6.68;86.56
68859;BME280;55864;49.238;8.092;2023-02-20T03:59:54;100520.38;;;6.69;86.46
68859;BME280;55864;49.238;8.092;2023-02-20T04:02:01;100526.44;;;6.70;86.41
68859;BME280;55864;49.238;8.092;2023-02-20T04:04:03;100526.25;;;6.73;86.42
68859;BME280;55864;49.238;8.092;2023-02-20T04:06:09;100526.53;;;6.68;86.61
68859;BME280;55864;49.238;8.092;2023-02-20T04:08:13;100536.91;;;6.70;86.35
68859;BME280;55864;49.238;8.092;2023-02-20T04:10:21;100538.56;;;6.71;87.03
68859;BME280;55864;49.238;8.092;2023-02-20T04:12:25;100541.16;;;6.71;86.14
68859;BME280;55864;49.238;8.092;2023-02-20T04:14:28;100535.41;;;6.65;86.56
68859;BME280;55864;49.238;8.092;2023-02-20T04:16:35;100526.91;;;6.62;86.54
68859;BME280;55864;49.238;8.092;2023-02-20T04:18:39;100528.66;;;6.61;86.57
68859;BME280;55864;49.238;8.092;2023-02-20T04:20:40;100524.00;;;6.66;86.48
68859;BME280;55864;49.238;8.092;2023-02-20T04:23:06;100517.13;;;6.65;86.27
68859;BME280;55864;49.238;8.092;2023-02-20T04:25:17;100520.94;;;6.60;86.50
68859;BME280;55864;49.238;8.092;2023-02-20T04:27:25;100520.44;;;6.53;86.44
68859;BME280;55864;49.238;8.092;2023-02-20T04:29:30;100525.56;;;6.55;86.42
68859;BME280;55864;49.238;8.092;2023-02-20T04:31:33;100517.09;;;6.51;86.62
68859;BME280;55864;49.238;8.092;2023-02-20T04:33:34;100529.03;;;6.41;87.05
68859;BME280;55864;49.238;8.092;2023-02-20T04:35:40;100529.84;;;6.42;87.29
68859;BME280;55864;49.238;8.092;2023-02-20T04:37:41;100528.63;;;6.33;87.24
68859;BME280;55864;49.238;8.092;2023-02-20T04:39:42;100524.50;;;6.29;87.28
68859;BME280;55864;49.238;8.092;2023-02-20T04:41:43;100531.56;;;6.27;87.43
68859;BME280;55864;49.238;8.092;2023-02-20T04:43:44;100531.56;;;6.27;88.13
68859;BME280;55864;49.238;8.092;2023-02-20T04:45:45;100522.75;;;6.30;87.48
68859;BME280;55864;49.238;8.092;2023-02-20T04:47:47;100521.03;;;6.29;87.53
68859;BME280;55864;49.238;8.092;2023-02-20T04:49:48;100527.56;;;6.22;87.49
68859;BME280;55864;49.238;8.092;2023-02-20T04:51:53;100522.81;;;6.28;87.60
68859;BME280;55864;49.238;8.092;2023-02-20T04:53:55;100524.50;;;6.29;87.64
68859;BME280;55864;49.238;8.092;2023-02-20T04:55:55;100519.28;;;6.29;87.52
68859;BME280;55864;49.238;8.092;2023-02-20T04:57:58;100521.69;;;6.32;87.63
68859;BME280;55864;49.238;8.092;2023-02-20T05:00:03;100524.31;;;6.32;87.15
68859;BME280;55864;49.238;8.092;2023-02-20T05:02:04;100523.41;;;6.33;87.07
68859;BME280;55864;49.238;8.092;2023-02-20T05:04:06;100514.53;;;6.36;87.08
68859;BME280;55864;49.238;8.092;2023-02-20T05:06:07;100522.75;;;6.30;86.61
68859;BME280;55864;49.238;8.092;2023-02-20T05:08:08;100517.78;;;6.25;87.11
68859;BME280;55864;49.238;8.092;2023-02-20T05:10:12;100520.28;;;6.27;87.31
68859;BME280;55864;49.238;8.092;2023-02-20T05:12:12;100523.84;;;6.26;87.31
68859;BME280;55864;49.238;8.092;2023-02-20T05:14:13;100524.69;;;6.26;87.29
68859;BME280;55864;49.238;8.092;2023-02-20T05:16:14;100518.34;;;6.30;87.56
68859;BME280;55864;49.238;8.092;2023-02-20T05:18:23;100524.69;;;6.26;87.55
68859;BME280;55864;49.238;8.092;2023-02-20T05:20:25;100529.72;;;6.29;87.48
68859;BME280;55864;49.238;8.092;2023-02-20T05:22:25;100520.28;;;6.27;87.41
68859;BME280;55864;49.238;8.092;2023-02-20T05:24:26;100516.88;;;6.26;87.68
68859;BME280;55864;49.238;8.092;2023-02-20T05:26:26;100517.88;;;6.24;87.68
68859;BME280;55864;49.238;8.092;2023-02-20T05:28:27;100519.81;;;6.20;87.63
68859;BME280;55864;49.238;8.092;2023-02-20T05:30:27;100517.13;;;6.22;87.89
68859;BME280;55864;49.238;8.092;2023-02-20T05:32:29;100521.69;;;6.18;88.04
68859;BME280;55864;49.238;8.092;2023-02-20T05:34:30;100519.22;;;6.15;87.60
68859;BME280;55864;49.238;8.092;2023-02-20T05:36:32;100512.34;;;6.14;87.60
68859;BME280;55864;49.238;8.092;2023-02-20T05:38:33;100510.19;;;6.07;87.77
68859;BME280;55864;49.238;8.092;2023-02-20T05:40:33;100511.09;;;6.06;87.60
68859;BME280;55864;49.238;8.092;2023-02-20T05:42:34;100514.81;;;6.02;88.23
68859;BME280;55864;49.238;8.092;2023-02-20T05:44:35;100523.31;;;6.05;88.05
68859;BME280;55864;49.238;8.092;2023-02-20T05:46:38;100512.28;;;6.00;87.78
68859;BME280;55864;49.238;8.092;2023-02-20T05:48:39;100510.97;;;5.93;88.20
68859;BME280;55864;49.238;8.092;2023-02-20T05:50:40;100512.56;;;5.96;88.03
68859;BME280;55864;49.238;8.092;2023-02-20T05:52:42;100508.75;;;6.01;88.14
68859;BME280;55864;49.238;8.092;2023-02-20T05:54:45;100514.13;;;5.98;88.13
68859;BME280;55864;49.238;8.092;2023-02-20T05:56:46;100515.25;;;5.94;88.03
68859;BME280;55864;49.238;8.092;2023-02-20T05:58:47;100513.47;;;5.95;88.00
68859;BME280;55864;49.238;8.092;2023-02-20T06:00:48;100513.56;;;5.93;88.15
68859;BME280;55864;49.238;8.092;2023-02-20T06:02:49;100505.84;;;5.92;88.43
68859;BME280;55864;49.238;8.092;2023-02-20T06:04:50;100512.81;;;5.91;88.25
68859;BME280;55864;49.238;8.092;2023-02-20T06:06:50;100515.41;;;5.91;88.33
68859;BME280;55864;49.238;8.092;2023-02-20T06:08:52;100506.69;;;5.92;88.17
68859;BME280;55864;49.238;8.092;2023-02-20T06:10:53;100514.50;;;5.92;88.07
68859;BME280;55864;49.238;8.092;2023-02-20T06:12:53;100511.91;;;5.92;87.90
68859;BME280;55864;49.238;8.092;2023-02-20T06:14:54;100504.84;;;5.94;88.00
68859;BME280;55864;49.238;8.092;2023-02-20T06:16:55;100509.09;;;5.95;88.00
68859;BME280;55864;49.238;8.092;2023-02-20T06:18:56;100505.94;;;5.90;87.75
68859;BME280;55864;49.238;8.092;2023-02-20T06:20:57;100509.28;;;5.92;87.99
68859;BME280;55864;49.238;8.092;2023-02-20T06:22:57;100508.34;;;5.93;87.73
68859;BME280;55864;49.238;8.092;2023-02-20T06:24:59;100503.13;;;5.93;87.26
68859;BME280;55864;49.238;8.092;2023-02-20T06:27:00;100500.34;;;5.96;87.38
68859;BME280;55864;49.238;8.092;2023-02-20T06:29:00;100500.44;;;5.95;86.85
68859;BME280;55864;49.238;8.092;2023-02-20T06:31:01;100499.03;;;5.89;87.39
68859;BME280;55864;49.238;8.092;2023-02-20T06:33:01;100499.78;;;5.91;87.82
68859;BME280;55864;49.238;8.092;2023-02-20T06:35:02;100498.69;;;5.95;87.86
68859;BME280;55864;49.238;8.092;2023-02-20T06:37:03;100501.38;;;5.94;87.55
68859;BME280;55864;49.238;8.092;2023-02-20T06:39:05;100507.25;;;5.97;87.64
68859;BME280;55864;49.238;8.092;2023-02-20T06:41:07;100505.41;;;5.99;87.58
68859;BME280;55864;49.238;8.092;2023-02-20T06:43:08;100501.03;;;6.00;87.42
68859;BME280;55864;49.238;8.092;2023-02-20T06:45:08;100498.44;;;6.00;87.67
68859;BME280;55864;49.238;8.092;2023-02-20T06:47:09;100501.28;;;5.95;87.75
68859;BME280;55864;49.238;8.092;2023-02-20T06:49:09;100501.38;;;5.94;88.00
68859;BME280;55864;49.238;8.092;2023-02-20T06:51:10;100501.47;;;5.92;87.93
68859;BME280;55864;49.238;8.092;2023-02-20T06:53:11;100506.00;;;5.89;88.11
68859;BME280;55864;49.238;8.092;2023-02-20T06:55:11;100505.28;;;5.87;87.95
68859;BME280;55864;49.238;8.092;2023-02-20T06:57:13;100505.50;;;5.82;88.38
68859;BME280;55864;49.238;8.092;2023-02-20T06:59:14;100502.81;;;5.84;88.60
68859;BME280;55864;49.238;8.092;2023-02-20T07:01:14;100505.44;;;5.84;88.71
68859;BME280;55864;49.238;8.092;2023-02-20T07:03:15;100500.97;;;5.86;89.07
68859;BME280;55864;49.238;8.092;2023-02-20T07:05:15;100500.97;;;5.86;89.02
68859;BME280;55864;49.238;8.092;2023-02-20T07:07:16;100510.63;;;5.84;89.12
68859;BME280;55864;49.238;8.092;2023-02-20T07:09:17;100507.94;;;5.85;89.36
68859;BME280;55864;49.238;8.092;2023-02-20T07:11:19;100509.53;;;5.88;89.11
68859;BME280;55864;49.238;8.092;2023-02-20T07:13:22;100509.63;;;5.86;89.36
68859;BME280;55864;49.238;8.092;2023-02-20T07:15:22;100514.00;;;5.86;89.22
68859;BME280;55864;49.238;8.092;2023-02-20T07:17:23;100511.31;;;5.87;89.78
68859;BME280;55864;49.238;8.092;2023-02-20T07:19:23;100511.06;;;5.92;89.68
68859;BME280;55864;49.238;8.092;2023-02-20T07:21:24;100517.13;;;5.92;89.46
68859;BME280;55864;49.238;8.092;2023-02-20T07:23:25;100518.59;;;5.96;89.73
68859;BME280;55864;49.238;8.092;2023-02-20T07:25:25;100523.91;;;5.95;89.52
68859;BME280;55864;49.238;8.092;2023-02-20T07:27:26;100527.44;;;5.94;89.71
68859;BME280;55864;49.238;8.092;2023-02-20T07:29:28;100525.75;;;5.93;90.15
68859;BME280;55864;49.238;8.092;2023-02-20T07:31:28;100524.00;;;5.93;89.97
68859;BME280;55864;49.238;8.092;2023-02-20T07:33:29;100525.69;;;5.94;90.10
68859;BME280;55864;49.238;8.092;2023-02-20T07:35:29;100519.34;;;5.98;89.92
68859;BME280;55864;49.238;8.092;2023-02-20T07:37:35;100515.66;;;6.02;90.12
68859;BME280;55864;49.238;8.092;2023-02-20T07:39:36;100523.22;;;6.07;89.98
68859;BME280;55864;49.238;8.092;2023-02-20T07:41:36;100522.13;;;6.11;89.83
68859;BME280;55864;49.238;8.092;2023-02-20T07:43:39;100524.72;;;6.11;89.66
68859;BME280;55864;49.238;8.092;2023-02-20T07:45:42;100518.47;;;6.13;90.03
68859;BME280;55864;49.238;8.092;2023-02-20T07:47:43;100519.31;;;6.14;89.89
68859;BME280;55864;49.238;8.092;2023-02-20T07:49:43;100519.97;;;6.17;89.93
68859;BME280;55864;49.238;8.092;2023-02-20T07:51:44;100525.03;;;6.20;89.76
68859;BME280;55864;49.238;8.092;2023-02-20T07:53:48;100525.59;;;6.25;90.15
68859;BME280;55864;49.238;8.092;2023-02-20T07:55:49;100518.44;;;6.29;89.79
68859;BME280;55864;49.238;8.092;2023-02-20T07:57:50;100517.13;;;6.36;90.07
68859;BME280;55864;49.238;8.092;2023-02-20T07:59:50;100516.72;;;6.43;90.07
68859;BME280;55864;49.238;8.092;2023-02-20T08:01:52;100512.06;;;6.48;89.84
68859;BME280;55864;49.238;8.092;2023-02-20T08:03:53;100509.84;;;6.56;90.60
68859;BME280;55864;49.238;8.092;2023-02-20T08:05:53;100523.25;;;6.64;89.97
68859;BME280;55864;49.238;8.092;2023-02-20T08:07:54;100515.06;;;6.71;89.26
68859;BME280;55864;49.238;8.092;2023-02-20T08:09:54;100520.66;;;6.79;89.09
68859;BME280;55864;49.238;8.092;2023-02-20T08:11:55;100509.28;;;6.94;90.21
68859;BME280;55864;49.238;8.092;2023-02-20T08:13:55;100516.75;;;7.00;88.11
68859;BME280;55864;49.238;8.092;2023-02-20T08:15:56;100516.84;;;7.12;87.84
68859;BME280;55864;49.238;8.092;2023-02-20T08:17:58;100505.81;;;7.21;87.41
68859;BME280;55864;49.238;8.092;2023-02-20T08:19:58;100507.66;;;7.33;86.17
68859;BME280;55864;49.238;8.092;2023-02-20T08:21:59;100501.75;;;7.44;85.12
68859;BME280;55864;49.238;8.092;2023-02-20T08:23:59;100509.13;;;7.51;86.23
68859;BME280;55864;49.238;8.092;2023-02-20T08:26:02;100505.00;;;7.61;84.56
68859;BME280;55864;49.238;8.092;2023-02-20T08:28:03;100507.31;;;7.66;83.76
68859;BME280;55864;49.238;8.092;2023-02-20T08:30:04;100501.72;;;7.72;84.01
68859;BME280;55864;49.238;8.092;2023-02-20T08:32:08;100497.75;;;7.79;82.65
68859;BME280;55864;49.238;8.092;2023-02-20T08:34:10;100508.56;;;7.87;83.32
68859;BME280;55864;49.238;8.092;2023-02-20T08:36:10;100494.25;;;7.93;82.17
68859;BME280;55864;49.238;8.092;2023-02-20T08:38:26;100505.88;;;8.01;82.87
68859;BME280;55864;49.238;8.092;2023-02-20T08:40:27;100492.19;;;8.10;82.77
68859;BME280;55864;49.238;8.092;2023-02-20T08:42:27;100493.66;;;8.14;82.63
68859;BME280;55864;49.238;8.092;2023-02-20T08:44:28;100485.69;;;8.16;81.65
68859;BME280;55864;49.238;8.092;2023-02-20T08:46:28;100483.81;;;8.18;81.69
68859;BME280;55864;49.238;8.092;2023-02-20T08:48:29;100486.25;;;8.21;81.72
68859;BME280;55864;49.238;8.092;2023-02-20T08:50:31;100487.75;;;8.25;82.08
68859;BME280;55864;49.238;8.092;2023-02-20T08:52:31;100479.41;;;8.32;81.48
68859;BME280;55864;49.238;8.092;2023-02-20T08:54:32;100492.88;;;8.39;81.12
68859;BME280;55864;49.238;8.092;2023-02-20T08:56:32;100492.25;;;8.48;81.31
68859;BME280;55864;49.238;8.092;2023-02-20T08:58:33;100489.13;;;8.55;81.26
68859;BME280;55864;49.238;8.092;2023-02-20T09:00:33;100485.06;;;8.64;80.54
68859;BME280;55864;49.238;8.092;2023-02-20T09:02:34;100487.03;;;8.73;79.41
68859;BME280;55864;49.238;8.092;2023-02-20T09:04:34;100487.25;;;8.83;79.81
68859;BME280;55864;49.238;8.092;2023-02-20T09:06:36;100490.38;;;8.88;79.47
68859;BME280;55864;49.238;8.092;2023-02-20T09:08:37;100482.72;;;8.97;79.18
68859;BME280;55864;49.238;8.092;2023-02-20T09:10:37;100483.88;;;9.06;78.49
68859;BME280;55864;49.238;8.092;2023-02-20T09:12:38;100483.34;;;9.13;78.83
68859;BME280;55864;49.238;8.092;2023-02-20T09:14:38;100486.34;;;9.20;77.55
68859;BME280;55864;49.238;8.092;2023-02-20T09:16:39;100477.31;;;9.24;76.86
68859;BME280;55864;49.238;8.092;2023-02-20T09:18:40;100471.88;;;9.27;77.01
68859;BME280;55864;49.238;8.092;2023-02-20T09:20:41;100468.81;;;9.33;77.00
68859;BME280;55864;49.238;8.092;2023-02-20T09:22:43;100470.59;;;9.32;76.42
68859;BME280;55864;49.238;8.092;2023-02-20T09:24:46;100469.03;;;9.30;76.10
68859;BME280;55864;49.238;8.092;2023-02-20T09:26:46;100473.44;;;9.29;76.25
68859;BME280;55864;49.238;8.092;2023-02-20T09:28:47;100456.88;;;9.29;75.92
68859;BME280;55864;49.238;8.092;2023-02-20T09:30:47;100453.78;;;9.35;76.35
68859;BME280;55864;49.238;8.092;2023-02-20T09:32:48;100457.56;;;9.43;75.96
68859;BME280;55864;49.238;8.092;2023-02-20T09:34:49;100442.66;;;9.44;75.90
68859;BME280;55864;49.238;8.092;2023-02-20T09:36:49;100444.22;;;9.46;75.18
68859;BME280;55864;49.238;8.092;2023-02-20T09:38:51;100440.03;;;9.44;75.65
68859;BME280;55864;49.238;8.092;2023-02-20T09:40:55;100438.34;;;9.43;75.91
68859;BME280;55864;49.238;8.092;2023-02-20T09:43:05;100438.16;;;9.46;76.20
68859;BME280;55864;49.238;8.092;2023-02-20T09:45:10;100434.00;;;9.55;75.24
68859;BME280;55864;49.238;8.092;2023-02-20T09:47:26;100425.69;;;9.61;75.69
68859;BME280;55864;49.238;8.092;2023-02-20T09:49:31;100428.38;;;9.72;77.72
68859;BME280;55864;49.238;8.092;2023-02-20T09:51:35;100433.16;;;9.78;77.26
68859;BME280;55864;49.238;8.092;2023-02-20T09:53:40;100434.25;;;9.86;75.00
68859;BME280;55864;49.238;8.092;2023-02-20T09:55:48;100424.28;;;9.91;75.16
68859;BME280;55864;49.238;8.092;2023-02-20T09:57:51;100428.34;;;9.95;74.58
68859;BME280;55864;49.238;8.092;2023-02-20T09:59:58;100427.78;;;10.03;74.74
68859;BME280;55864;49.238;8.092;2023-02-20T10:02:07;100431.22;;;10.03;73.45
68859;BME280;55864;49.238;8.092;2023-02-20T10:04:15;100434.34;;;10.08;73.46
68859;BME280;55864;49.238;8.092;2023-02-20T10:06:20;100427.72;;;10.15;73.66
68859;BME280;55864;49.238;8.092;2023-02-20T10:08:22;100437.97;;;10.18;72.97
68859;BME280;55864;49.238;8.092;2023-02-20T10:10:25;100440.38;;;10.21;74.28
68859;BME280;55864;49.238;8.092;2023-02-20T10:12:29;100437.38;;;10.26;73.63
68859;BME280;55864;49.238;8.092;2023-02-20T10:14:39;100439.56;;;10.32;74.02
68859;BME280;55864;49.238;8.092;2023-02-20T10:16:51;100447.09;;;10.36;72.02
68859;BME280;55864;49.238;8.092;2023-02-20T10:19:02;100443.03;;;10.32;72.86
68859;BME280;55864;49.238;8.092;2023-02-20T10:21:11;100445.19;;;10.38;72.46
68859;BME280;55864;49.238;8.092;2023-02-20T10:23:19;100435.16;;;10.43;72.32
68859;BME280;55864;49.238;8.092;2023-02-20T10:25:28;100427.75;;;10.49;72.99
68859;BME280;55864;49.238;8.092;2023-02-20T10:27:39;100422.16;;;10.53;72.95
68859;BME280;55864;49.238;8.092;2023-02-20T10:29:43;100419.53;;;10.53;71.62
68859;BME280;55864;49.238;8.092;2023-02-20T10:31:50;100424.19;;;10.61;71.70
68859;BME280;55864;49.238;8.092;2023-02-20T10:33:55;100418.81;;;10.62;71.01
68859;BME280;55864;49.238;8.092;2023-02-20T10:36:01;100425.16;;;10.60;71.04
68859;BME280;55864;49.238;8.092;2023-02-20T10:38:07;100418.59;;;10.65;70.73
68859;BME280;55864;49.238;8.092;2023-02-20T10:40:15;100426.09;;;10.70;71.07
68859;BME280;55864;49.238;8.092;2023-02-20T10:42:22;100432.06;;;10.83;70.23
68859;BME280;55864;49.238;8.092;2023-02-20T10:44:31;100432.78;;;10.85;70.75
68859;BME280;55864;49.238;8.092;2023-02-20T10:46:38;100429.94;;;10.88;70.63
68859;BME280;55864;49.238;8.092;2023-02-20T10:48:40;100422.25;;;10.96;70.36
68859;BME280;55864;49.238;8.092;2023-02-20T10:50:46;100424.22;;;10.94;70.13
68859;BME280;55864;49.238;8.092;2023-02-20T10:52:51;100419.53;;;10.97;69.01
68859;BME280;55864;49.238;8.092;2023-02-20T10:54:57;100426.91;;;11.03;69.50
68859;BME280;55864;49.238;8.092;2023-02-20T10:57:06;100423.09;;;11.07;70.00
68859;BME280;55864;49.238;8.092;2023-02-20T10:59:15;100422.88;;;11.10;69.74
68859;BME280;55864;49.238;8.092;2023-02-20T11:01:22;100409.59;;;11.12;70.30